Time;durP1;ratioP1;P1;durP2;ratioP2;P2;SDS_P1;SDS_P2;PMS_P1;PMS_P2;Temp;Humidity;BMP_temperature;BMP_pressure;BME280_temperature;BME280_humidity;BME280_pressure;Samples;Min_cycle;Max_cycle;Signal;HPM_P1;HPM_P2
2022/03/26 00:00:22;;;;;;;41.63;24.80;;;;;;;9.90;52.24;103007.72;5283515;28;20027;-73
2022/03/26 00:02:53;;;;;;;39.47;24.30;;;;;;;9.93;52.14;103008.50;5280519;28;20115;-73
2022/03/26 00:05:24;;;;;;;44.17;25.23;;;;;;;9.64;53.21;103003.91;5270033;28;20059;-74
2022/03/26 00:07:55;;;;;;;43.40;24.03;;;;;;;9.82;52.68;103009.66;5289118;28;20115;-74
2022/03/26 00:10:27;;;;;;;37.30;24.17;;;;;;;9.67;53.06;103007.31;5277667;28;20779;-74
2022/03/26 00:12:58;;;;;;;44.83;26.20;;;;;;;9.57;53.04;103011.03;5281692;28;20028;-74
2022/03/26 00:15:30;;;;;;;35.93;25.20;;;;;;;9.62;53.24;103011.78;5287668;28;20039;-74
2022/03/26 00:18:02;;;;;;;35.80;24.30;;;;;;;9.73;53.04;103008.94;5284910;28;20419;-74
2022/03/26 00:20:33;;;;;;;37.13;23.07;;;;;;;9.61;52.90;103012.69;5272431;28;20036;-73
2022/03/26 00:23:04;;;;;;;40.10;23.90;;;;;;;9.50;53.55;103010.28;5285293;28;20051;-74
2022/03/26 00:25:36;;;;;;;39.10;25.17;;;;;;;9.37;53.75;103008.81;5287687;28;20031;-74
2022/03/26 00:28:07;;;;;;;38.30;24.53;;;;;;;9.47;53.19;103004.25;5271516;28;20034;-73
2022/03/26 00:30:38;;;;;;;39.37;24.43;;;;;;;9.70;52.99;103005.53;5272392;28;20078;-74
2022/03/26 00:33:10;;;;;;;36.77;23.47;;;;;;;9.35;53.90;103003.63;5272460;28;20071;-74
2022/03/26 00:35:41;;;;;;;34.37;23.03;;;;;;;9.61;52.83;102997.00;5261478;28;21503;-74
2022/03/26 00:38:13;;;;;;;36.67;24.20;;;;;;;9.35;54.30;103001.00;5266446;28;20037;-74
2022/03/26 00:40:44;;;;;;;37.50;24.80;;;;;;;9.23;53.77;102999.50;5280892;28;20020;-74
2022/03/26 00:43:16;;;;;;;32.50;24.03;;;;;;;9.14;54.14;102999.66;5284637;28;20535;-74
2022/03/26 00:45:47;;;;;;;37.40;24.57;;;;;;;9.28;53.79;102999.41;5283222;28;20086;-73
2022/03/26 00:48:19;;;;;;;40.40;24.47;;;;;;;8.95;54.89;102998.25;5281576;28;20744;-74
2022/03/26 00:50:50;;;;;;;34.80;23.33;;;;;;;8.91;54.40;102995.72;5270549;28;20537;-74
2022/03/26 00:53:21;;;;;;;34.67;24.07;;;;;;;9.06;54.30;102999.78;5275459;28;20036;-73
2022/03/26 00:55:53;;;;;;;34.97;25.27;;;;;;;8.98;54.86;103005.19;5285327;28;20039;-74
2022/03/26 00:58:24;;;;;;;35.83;24.23;;;;;;;9.15;53.87;103004.88;5292827;28;20030;-73
2022/03/26 01:00:55;;;;;;;36.77;24.43;;;;;;;8.87;55.03;103000.13;5272540;28;20474;-74
2022/03/26 01:03:27;;;;;;;39.63;25.43;;;;;;;8.85;54.74;103001.06;5288202;28;20026;-73
2022/03/26 01:05:58;;;;;;;39.70;24.10;;;;;;;8.58;55.46;103002.38;5281918;28;20036;-73
2022/03/26 01:08:30;;;;;;;40.20;26.73;;;;;;;8.56;55.95;102993.69;5281911;28;20024;-74
2022/03/26 01:11:01;;;;;;;37.00;25.13;;;;;;;8.44;56.12;102981.69;5253380;28;20021;-74
2022/03/26 01:13:34;;;;;;;41.20;24.53;;;;;;;8.59;55.59;102993.66;5272786;28;20056;-74
2022/03/26 01:16:06;;;;;;;48.60;25.73;;;;;;;8.37;55.86;102987.88;5274191;28;20032;-74
2022/03/26 01:18:38;;;;;;;39.37;24.93;;;;;;;8.39;56.03;102983.50;5278460;28;20025;-74
2022/03/26 01:21:10;;;;;;;37.13;24.43;;;;;;;8.19;56.68;102984.66;5290911;28;20035;-74
2022/03/26 01:23:41;;;;;;;41.13;26.20;;;;;;;8.41;55.82;102988.69;5285071;28;20035;-74
2022/03/26 01:26:14;;;;;;;39.30;27.27;;;;;;;8.38;56.62;102986.97;5270719;28;20036;-73
2022/03/26 01:28:45;;;;;;;39.00;25.50;;;;;;;8.63;55.64;102990.97;5278836;28;20554;-74
2022/03/26 01:31:19;;;;;;;41.30;26.83;;;;;;;8.30;56.38;102994.97;5291955;28;20115;-74
2022/03/26 01:33:50;;;;;;;36.35;25.38;;;;;;;8.34;56.70;102990.56;5262915;28;20085;-73
2022/03/26 01:36:22;;;;;;;39.53;25.57;;;;;;;8.11;56.98;102983.94;5271291;28;20052;-74
2022/03/26 01:38:54;;;;;;;37.80;24.83;;;;;;;8.20;57.18;102989.00;5280996;28;20035;-74
2022/03/26 01:41:25;;;;;;;37.93;27.33;;;;;;;7.97;57.67;102986.72;5271070;28;20426;-73
2022/03/26 01:43:57;;;;;;;41.63;27.10;;;;;;;8.09;56.87;102986.56;5282345;28;20029;-74
2022/03/26 01:46:50;;;;;;;38.00;26.37;;;;;;;8.01;57.67;102979.72;5272371;28;20020;-74
2022/03/26 01:49:22;;;;;;;46.60;27.57;;;;;;;7.94;58.14;102978.97;5290713;28;20135;-74
2022/03/26 01:51:54;;;;;;;44.30;27.13;;;;;;;8.14;58.03;102999.53;5256762;28;20116;-74
2022/03/26 01:54:26;;;;;;;40.87;26.57;;;;;;;8.26;57.68;102995.00;5283973;28;20103;-73
2022/03/26 01:56:58;;;;;;;43.27;24.80;;;;;;;8.09;58.09;102996.13;5291843;28;20394;-73
2022/03/26 01:59:30;;;;;;;46.00;25.33;;;;;;;8.14;57.90;102999.53;5273179;28;20024;-73
2022/03/26 02:02:01;;;;;;;42.83;26.07;;;;;;;8.14;58.22;102996.94;5287660;28;20189;-74
2022/03/26 02:04:35;;;;;;;45.87;26.17;;;;;;;7.95;59.37;102989.38;5255755;28;20089;-74
2022/03/26 02:07:07;;;;;;;36.42;24.90;;;;;;;7.97;58.88;102991.97;5267914;28;20036;-74
2022/03/26 02:09:38;;;;;;;43.40;26.37;;;;;;;7.80;59.06;102973.94;5276965;28;20051;-73
2022/03/26 02:12:22;;;;;;;43.80;25.63;;;;;;;7.95;59.25;102994.59;5281370;28;20501;-73
2022/03/26 02:14:54;;;;;;;44.20;25.87;;;;;;;7.98;59.52;102991.94;5278680;28;20029;-73
2022/03/26 02:17:26;;;;;;;35.23;25.87;;;;;;;7.88;59.33;102990.34;5274874;28;20031;-74
2022/03/26 02:19:58;;;;;;;46.47;26.20;;;;;;;7.81;59.83;102992.16;5290359;28;20470;-72
2022/03/26 02:22:30;;;;;;;39.63;27.07;;;;;;;7.79;60.29;102985.22;5290552;28;20024;-74
2022/03/26 02:25:01;;;;;;;41.03;27.20;;;;;;;7.63;60.31;102986.31;5275963;28;20021;-74
2022/03/26 02:27:33;;;;;;;43.90;26.03;;;;;;;7.82;60.05;102993.03;5282657;28;20032;-74
2022/03/26 02:30:05;;;;;;;48.03;27.00;;;;;;;7.86;59.95;102968.63;5276704;28;20028;-74
2022/03/26 02:32:37;;;;;;;43.10;25.80;;;;;;;7.67;60.69;102984.53;5274475;28;20072;-74
2022/03/26 02:35:08;;;;;;;39.00;24.67;;;;;;;7.77;59.96;102992.25;5273955;28;20056;-74
2022/03/26 02:37:40;;;;;;;38.70;25.37;;;;;;;7.66;60.30;102977.59;5278157;28;20050;-73
2022/03/26 02:40:11;;;;;;;40.57;24.03;;;;;;;7.43;61.19;102976.13;5286979;28;20478;-74
2022/03/26 02:42:42;;;;;;;40.67;25.87;;;;;;;7.68;61.03;102983.63;5288740;28;20445;-73
2022/03/26 02:45:14;;;;;;;37.83;23.93;;;;;;;7.56;61.58;102989.00;5257399;28;20040;-73
2022/03/26 02:47:45;;;;;;;38.97;25.57;;;;;;;7.56;61.42;102981.16;5280495;28;20032;-73
2022/03/26 02:50:16;;;;;;;39.57;25.47;;;;;;;7.47;61.54;102990.00;5275712;28;20793;-73
2022/03/26 02:52:50;;;;;;;41.23;24.87;;;;;;;7.81;60.37;102986.06;5295453;28;20077;-73
2022/03/26 02:55:22;;;;;;;45.50;26.52;;;;;;;7.65;60.18;102988.03;5281395;28;20078;-73
2022/03/26 02:57:53;;;;;;;43.57;25.70;;;;;;;7.86;59.67;102984.28;5294769;28;20541;-74
2022/03/26 03:00:24;;;;;;;35.37;25.20;;;;;;;7.42;61.10;102994.41;5263650;28;20056;-73
2022/03/26 03:02:56;;;;;;;42.30;27.57;;;;;;;7.56;60.48;102979.44;5272777;28;20028;-73
2022/03/26 03:05:27;;;;;;;43.90;24.53;;;;;;;7.45;61.10;102984.78;5286174;28;20123;-71
2022/03/26 03:08:00;;;;;;;38.93;24.83;;;;;;;7.46;60.74;102983.91;5291389;28;20617;-73
2022/03/26 03:10:31;;;;;;;39.70;25.43;;;;;;;7.49;60.23;102983.88;5290909;28;20498;-73
2022/03/26 03:13:02;;;;;;;39.87;24.20;;;;;;;7.21;61.18;102989.41;5281245;28;20032;-74
2022/03/26 03:15:33;;;;;;;43.17;26.73;;;;;;;7.16;61.59;102990.34;5274351;28;20028;-72
2022/03/26 03:18:05;;;;;;;36.77;25.67;;;;;;;7.07;61.93;102989.53;5258140;28;20321;-72
2022/03/26 03:20:36;;;;;;;39.80;25.87;;;;;;;7.19;61.74;102988.53;5272212;28;20032;-72
2022/03/26 03:23:07;;;;;;;42.87;26.57;;;;;;;7.13;61.62;102996.44;5280901;28;20028;-73
2022/03/26 03:25:39;;;;;;;49.43;26.33;;;;;;;7.00;61.88;102991.34;5284712;28;20032;-73
2022/03/26 03:28:10;;;;;;;41.90;24.83;;;;;;;6.98;62.41;102993.09;5292568;28;20020;-72
2022/03/26 03:30:41;;;;;;;43.40;25.60;;;;;;;7.25;60.81;102987.63;5294242;28;20024;-72
2022/03/26 03:33:12;;;;;;;37.33;23.93;;;;;;;7.01;61.91;102987.88;5292180;28;20478;-73
2022/03/26 03:35:44;;;;;;;37.80;24.13;;;;;;;7.28;60.81;102987.59;5291157;28;20028;-73
2022/03/26 03:38:15;;;;;;;38.30;25.60;;;;;;;6.91;62.31;102983.66;5290449;28;20021;-73
2022/03/26 03:40:46;;;;;;;39.63;25.83;;;;;;;6.81;62.45;102988.06;5285839;28;20030;-72
2022/03/26 03:43:18;;;;;;;40.47;24.63;;;;;;;6.80;62.67;102985.47;5261785;28;20071;-73
2022/03/26 03:45:50;;;;;;;44.67;24.93;;;;;;;6.61;63.59;102985.63;5274794;28;20028;-73
2022/03/26 03:48:21;;;;;;;44.17;26.43;;;;;;;6.57;64.05;102981.31;5290902;28;20416;-73
2022/03/26 03:50:52;;;;;;;39.43;25.47;;;;;;;6.78;63.46;102994.19;5292879;28;20066;-73
2022/03/26 03:53:24;;;;;;;38.90;25.90;;;;;;;6.69;64.05;102985.56;5238518;28;20029;-73
2022/03/26 03:55:55;;;;;;;43.17;26.77;;;;;;;6.71;63.58;102997.69;5272419;28;20039;-73
2022/03/26 03:58:26;;;;;;;42.90;26.53;;;;;;;6.70;63.75;102995.13;5277532;28;20441;-73
2022/03/26 04:00:57;;;;;;;44.73;26.47;;;;;;;6.62;64.21;102992.56;5274983;28;20485;-73
2022/03/26 04:03:29;;;;;;;40.10;25.30;;;;;;;6.57;64.51;103003.03;5290599;28;20027;-73
2022/03/26 04:06:01;;;;;;;44.43;27.57;;;;;;;6.44;65.95;102999.63;5284340;28;20044;-73
2022/03/26 04:08:32;;;;;;;37.37;25.23;;;;;;;6.43;66.00;102997.91;5278730;28;20478;-73
2022/03/26 04:11:04;;;;;;;39.03;24.37;;;;;;;6.51;64.97;103003.94;5274589;28;20090;-73
2022/03/26 04:13:35;;;;;;;38.60;25.43;;;;;;;6.45;65.48;103000.50;5275277;28;20271;-74
2022/03/26 04:16:07;;;;;;;41.27;26.23;;;;;;;6.41;65.70;103005.75;5293425;28;20081;-73
2022/03/26 04:18:39;;;;;;;44.10;25.57;;;;;;;6.40;65.90;103003.16;5281400;28;20033;-73
2022/03/26 04:21:10;;;;;;;46.37;26.20;;;;;;;6.35;66.44;103011.00;5287305;28;21030;-73
2022/03/26 04:23:42;;;;;;;45.57;25.87;;;;;;;6.35;65.86;103011.00;5291370;28;20031;-73
2022/03/26 04:26:14;;;;;;;43.17;25.87;;;;;;;6.36;66.24;103004.03;5274419;28;20043;-73
2022/03/26 04:28:46;;;;;;;40.50;26.10;;;;;;;6.34;64.61;103006.66;5273631;28;20611;-73
2022/03/26 04:31:17;;;;;;;40.17;24.37;;;;;;;6.36;65.22;103004.03;5253510;28;20844;-73
2022/03/26 04:33:48;;;;;;;40.37;26.23;;;;;;;6.37;65.35;103003.19;5273447;28;20051;-73
2022/03/26 04:36:20;;;;;;;44.93;24.60;;;;;;;6.47;64.77;103007.44;5271774;28;20024;-72
2022/03/26 04:38:52;;;;;;;41.77;27.20;;;;;;;6.26;65.39;103001.53;5286127;28;20127;-72
2022/03/26 04:41:24;;;;;;;39.10;25.57;;;;;;;6.16;65.39;102999.84;5274007;28;20190;-73
2022/03/26 04:43:56;;;;;;;39.13;25.93;;;;;;;6.14;65.37;102986.00;5272211;28;20129;-72
2022/03/26 04:46:27;;;;;;;39.73;24.40;;;;;;;6.16;65.89;102998.09;5271224;28;20108;-71
2022/03/26 04:48:58;;;;;;;37.27;24.80;;;;;;;6.25;65.46;102999.78;5285123;28;20036;-73
2022/03/26 04:51:29;;;;;;;40.50;26.40;;;;;;;5.97;66.06;102989.50;5279028;28;20028;-73
2022/03/26 04:54:01;;;;;;;39.60;25.33;;;;;;;6.00;66.48;102993.84;5271283;28;20067;-72
2022/03/26 04:56:32;;;;;;;37.20;24.53;;;;;;;6.04;65.84;102996.41;5271708;28;20033;-73
2022/03/26 04:59:04;;;;;;;39.97;24.80;;;;;;;5.93;66.37;102998.22;5281436;28;20110;-73
2022/03/26 05:01:35;;;;;;;44.73;26.93;;;;;;;5.92;66.08;103001.66;5284681;28;20024;-72
2022/03/26 05:04:06;;;;;;;39.40;25.70;;;;;;;5.80;66.65;103003.47;5288321;28;20043;-73
2022/03/26 05:06:38;;;;;;;36.57;26.47;;;;;;;5.83;66.78;102986.97;5273336;28;20039;-73
2022/03/26 05:09:09;;;;;;;34.60;24.57;;;;;;;5.79;66.89;103004.34;5288455;28;20040;-73
2022/03/26 05:11:40;;;;;;;37.13;26.83;;;;;;;5.74;67.19;103003.47;5272314;28;20119;-73
2022/03/26 05:14:13;;;;;;;42.07;25.50;;;;;;;5.70;67.03;102993.97;5274278;28;20039;-73
2022/03/26 05:16:44;;;;;;;38.97;23.60;;;;;;;5.73;67.27;103001.75;5290642;28;20082;-74
2022/03/26 05:19:15;;;;;;;35.80;23.80;;;;;;;5.74;66.71;103003.47;5282728;28;20028;-74
2022/03/26 05:21:47;;;;;;;40.33;24.77;;;;;;;5.80;66.80;103011.28;5292460;28;20028;-74
2022/03/26 05:24:18;;;;;;;43.90;24.43;;;;;;;5.56;67.59;102999.25;5279155;28;20075;-73
2022/03/26 05:26:50;;;;;;;40.87;25.73;;;;;;;5.69;67.21;103013.03;5261431;28;20021;-74
2022/03/26 05:29:21;;;;;;;39.77;25.77;;;;;;;5.75;67.56;103017.34;5267161;28;20052;-75
2022/03/26 05:31:52;;;;;;;33.83;22.50;;;;;;;5.63;67.81;103020.88;5282963;28;20120;-74
2022/03/26 05:34:24;;;;;;;39.70;22.93;;;;;;;5.67;67.84;103020.00;5281317;28;20093;-75
2022/03/26 05:36:55;;;;;;;41.30;24.70;;;;;;;5.68;68.37;103013.91;5292618;28;20124;-75
2022/03/26 05:39:26;;;;;;;39.60;26.67;;;;;;;5.71;68.92;103024.31;5278905;28;20032;-75
2022/03/26 05:41:58;;;;;;;46.33;26.13;;;;;;;5.74;68.95;103029.47;5285290;28;20039;-75
2022/03/26 05:44:29;;;;;;;44.03;26.30;;;;;;;5.70;69.09;103032.97;5280318;28;20538;-74
2022/03/26 05:47:00;;;;;;;38.57;26.50;;;;;;;5.56;68.94;103010.50;5266967;28;20028;-74
2022/03/26 05:49:32;;;;;;;45.53;24.97;;;;;;;5.56;68.68;103031.31;5253305;28;20079;-74
2022/03/26 05:52:04;;;;;;;41.13;26.50;;;;;;;5.45;69.75;103033.94;5272228;28;20028;-73
2022/03/26 05:54:35;;;;;;;40.67;26.40;;;;;;;5.47;69.72;103036.53;5271188;28;20086;-72
2022/03/26 05:57:06;;;;;;;47.40;25.40;;;;;;;5.48;70.28;103043.44;5275077;28;20483;-73
2022/03/26 05:59:38;;;;;;;40.10;24.50;;;;;;;5.63;70.29;103047.75;5289577;28;20484;-75
2022/03/26 06:02:13;;;;;;;38.30;24.63;;;;;;;5.73;69.42;103048.56;5296122;28;20024;-72
2022/03/26 06:04:45;;;;;;;44.03;26.00;;;;;;;5.81;69.25;103054.59;5278837;28;20044;-72
2022/03/26 06:07:16;;;;;;;47.30;24.47;;;;;;;5.81;69.53;103054.59;5274555;28;20028;-73
2022/03/26 06:09:48;;;;;;;42.43;26.50;;;;;;;5.65;69.71;103042.53;5275411;28;20075;-72
2022/03/26 06:12:19;;;;;;;42.20;25.40;;;;;;;5.93;69.13;103060.63;5276782;28;20118;-73
2022/03/26 06:14:51;;;;;;;42.53;26.50;;;;;;;5.91;69.43;103062.38;5296112;28;20032;-72
2022/03/26 06:17:23;;;;;;;43.40;23.90;;;;;;;6.05;68.96;103059.75;5293310;28;20024;-73
2022/03/26 06:19:54;;;;;;;47.20;26.33;;;;;;;5.91;69.65;103062.38;5279482;28;20036;-72
2022/03/26 06:22:26;;;;;;;38.60;24.13;;;;;;;6.06;69.43;103056.25;5267189;28;20053;-71
2022/03/26 06:24:57;;;;;;;42.03;27.13;;;;;;;5.89;69.59;103040.69;5271158;28;20016;-73
2022/03/26 06:27:29;;;;;;;39.77;23.20;;;;;;;6.07;69.85;103064.94;5284821;28;20032;-73
2022/03/26 06:30:00;;;;;;;43.27;25.57;;;;;;;6.12;69.75;103060.56;5276088;28;20032;-73
2022/03/26 06:32:31;;;;;;;41.60;26.27;;;;;;;6.20;69.38;103058.78;5295555;28;20023;-72
2022/03/26 06:35:05;;;;;;;43.07;25.77;;;;;;;6.21;69.50;103065.75;5293680;28;20024;-72
2022/03/26 06:37:36;;;;;;;42.47;26.13;;;;;;;6.18;70.24;103070.94;5295874;28;20074;-73
2022/03/26 06:40:08;;;;;;;49.90;27.60;;;;;;;6.20;70.99;103073.53;5280626;28;20028;-73
2022/03/26 06:42:39;;;;;;;49.03;27.63;;;;;;;6.41;69.66;103072.56;5275126;28;20028;-74
2022/03/26 06:45:10;;;;;;;46.13;29.00;;;;;;;6.47;69.52;103069.06;5283106;28;20032;-73
2022/03/26 06:47:42;;;;;;;44.00;27.17;;;;;;;6.47;69.49;103069.06;5278730;28;20033;-72
2022/03/26 06:50:13;;;;;;;45.23;25.97;;;;;;;6.56;69.23;103078.53;5279529;28;20044;-72
2022/03/26 06:52:45;;;;;;;45.77;26.63;;;;;;;6.63;68.93;103081.09;5257409;28;20478;-72
2022/03/26 06:55:16;;;;;;;45.80;27.63;;;;;;;6.66;69.03;103075.00;5271753;28;20203;-72
2022/03/26 06:57:51;;;;;;;44.00;26.90;;;;;;;6.83;68.80;103090.50;5287484;28;20032;-73
2022/03/26 07:00:22;;;;;;;45.45;26.85;;;;;;;6.85;68.57;103082.66;5294920;28;20547;-72
2022/03/26 07:02:54;;;;;;;48.30;27.83;;;;;;;6.75;69.28;103072.34;5281936;28;20040;-72
2022/03/26 07:05:25;;;;;;;45.70;27.33;;;;;;;6.94;68.32;103086.94;5275652;28;20071;-72
2022/03/26 07:07:57;;;;;;;39.07;25.67;;;;;;;7.04;67.99;103092.94;5293468;28;20107;-72
2022/03/26 07:10:28;;;;;;;51.83;28.00;;;;;;;7.10;67.91;103085.06;5275604;28;20540;-73
2022/03/26 07:12:59;;;;;;;39.43;25.90;;;;;;;7.28;67.00;103091.00;5288660;28;20042;-72
2022/03/26 07:15:31;;;;;;;45.77;27.93;;;;;;;7.30;67.29;103097.03;5283714;28;20128;-72
2022/03/26 07:18:03;;;;;;;44.50;26.93;;;;;;;7.41;66.71;103081.31;5273455;28;20123;-72
2022/03/26 07:20:34;;;;;;;41.37;27.57;;;;;;;7.56;66.20;103088.09;5258097;28;20046;-73
2022/03/26 07:23:05;;;;;;;55.93;29.20;;;;;;;7.66;65.91;103084.53;5273536;28;20494;-73
2022/03/26 07:25:36;;;;;;;50.53;27.97;;;;;;;7.74;66.73;103095.72;5281763;28;20225;-72
2022/03/26 07:28:08;;;;;;;45.50;28.13;;;;;;;7.86;65.60;103091.25;5279212;28;20024;-72
2022/03/26 07:30:39;;;;;;;44.43;28.53;;;;;;;7.94;65.13;103088.56;5285237;28;20059;-72
2022/03/26 07:33:10;;;;;;;43.33;27.30;;;;;;;8.19;64.96;103102.13;5273575;28;20031;-72
2022/03/26 07:35:42;;;;;;;46.53;28.00;;;;;;;8.32;64.72;103095.00;5242818;28;20035;-72
2022/03/26 07:38:13;;;;;;;42.07;26.40;;;;;;;8.42;63.51;103102.69;5234459;28;20037;-72
2022/03/26 07:40:44;;;;;;;44.20;27.37;;;;;;;8.61;63.33;103103.31;5261028;28;20024;-73
2022/03/26 07:43:16;;;;;;;48.87;28.17;;;;;;;8.64;63.30;103087.59;5287995;28;20035;-72
2022/03/26 07:45:47;;;;;;;47.07;27.20;;;;;;;8.98;62.76;103103.63;5276358;28;20078;-76
2022/03/26 07:48:18;;;;;;;44.13;27.57;;;;;;;9.17;62.59;103112.91;5272295;28;20031;-71
2022/03/26 07:50:50;;;;;;;46.10;28.03;;;;;;;9.46;61.58;103112.41;5281846;28;20048;-72
2022/03/26 07:53:27;;;;;;;46.67;27.40;;;;;;;9.95;60.35;103114.97;5272704;28;20016;-72
2022/03/26 07:55:58;;;;;;;41.93;24.37;;;;;;;10.08;59.96;103112.94;5273309;28;20037;-72
2022/03/26 07:58:30;;;;;;;43.90;29.13;;;;;;;10.37;58.60;103114.91;5274201;28;20027;-69
2022/03/26 08:01:01;;;;;;;43.47;25.10;;;;;;;10.79;57.91;103115.72;5273869;28;20489;-71
2022/03/26 08:03:33;;;;;;;39.10;25.97;;;;;;;11.40;55.15;103114.19;5262773;28;20051;-72
2022/03/26 08:06:04;;;;;;;44.13;26.03;;;;;;;12.32;53.06;103119.50;5273834;28;20024;-71
2022/03/26 08:08:36;;;;;;;37.87;23.70;;;;;;;13.19;50.48;103112.34;5280643;28;20025;-71
2022/03/26 08:11:07;;;;;;;36.87;23.77;;;;;;;14.09;49.22;103125.84;5274112;28;20110;-72
2022/03/26 08:13:39;;;;;;;36.67;23.23;;;;;;;14.75;46.43;103124.13;5254006;28;20430;-73
2022/03/26 08:16:10;;;;;;;39.67;22.10;;;;;;;15.41;44.83;103122.25;5279129;28;20039;-73
2022/03/26 08:18:41;;;;;;;32.70;21.53;;;;;;;16.01;43.54;103125.78;5265461;28;20043;-74
2022/03/26 08:21:14;;;;;;;37.73;22.67;;;;;;;16.62;42.08;103124.69;5267892;28;20063;-76
2022/03/26 08:23:46;;;;;;;34.83;21.80;;;;;;;17.03;40.75;103136.81;5260642;28;20118;-76
2022/03/26 08:26:20;;;;;;;34.90;22.13;;;;;;;17.57;39.70;103127.88;5272101;28;20516;-79
2022/03/26 08:28:53;;;;;;;30.75;20.88;;;;;;;18.37;39.50;103142.13;5271942;28;20028;-78
2022/03/26 08:31:27;;;;;;;31.77;20.30;;;;;;;18.91;37.24;103137.31;5226018;28;20029;-79
2022/03/26 08:33:59;;;;;;;32.83;21.17;;;;;;;19.15;36.86;103140.31;5259739;28;20036;-79
2022/03/26 08:36:31;;;;;;;33.60;21.97;;;;;;;19.92;35.69;103138.31;5260517;28;20017;-79
2022/03/26 08:39:02;;;;;;;33.67;22.30;;;;;;;20.58;34.48;103142.97;5242403;28;20020;-80
2022/03/26 08:41:33;;;;;;;34.67;22.97;;;;;;;20.40;34.39;103147.72;5261694;28;20418;-81
2022/03/26 08:44:05;;;;;;;34.40;22.47;;;;;;;21.12;33.49;103145.69;5264274;28;20305;-81
2022/03/26 08:46:37;;;;;;;29.15;21.20;;;;;;;21.15;33.14;103140.97;5247746;28;20546;-83
2022/03/26 08:49:08;;;;;;;30.70;19.77;;;;;;;21.60;32.12;103146.81;5250811;28;20172;-72
2022/03/26 08:51:39;;;;;;;31.13;21.73;;;;;;;21.64;31.43;103145.66;5251042;28;20063;-74
2022/03/26 08:54:11;;;;;;;32.63;20.33;;;;;;;22.27;31.21;103157.22;5250700;28;20583;-74
2022/03/26 08:56:42;;;;;;;37.15;21.92;;;;;;;22.31;30.17;103150.66;5251213;28;20108;-76
2022/03/26 08:59:13;;;;;;;34.28;20.33;;;;;;;22.66;30.23;103149.88;5252086;28;20048;-73
2022/03/26 09:01:45;;;;;;;31.65;20.08;;;;;;;22.97;29.27;103149.34;5260209;28;20029;-78
2022/03/26 09:04:16;;;;;;;31.52;19.83;;;;;;;23.08;29.33;103152.06;5242386;28;20580;-77
2022/03/26 09:06:48;;;;;;;32.67;19.90;;;;;;;23.12;29.11;103151.81;5252639;28;20024;-73
2022/03/26 09:09:20;;;;;;;27.95;19.98;;;;;;;23.67;28.12;103146.63;5250728;28;20139;-74
2022/03/26 09:11:53;;;;;;;33.45;21.40;;;;;;;23.90;27.93;103157.28;5250482;28;20116;-74
2022/03/26 09:14:24;;;;;;;28.02;20.65;;;;;;;24.13;27.14;103157.25;5250956;28;20104;-73
2022/03/26 09:16:56;;;;;;;33.72;22.40;;;;;;;24.28;27.44;103159.66;5251103;28;20492;-74
2022/03/26 09:19:27;;;;;;;28.50;19.70;;;;;;;24.67;27.27;103166.31;5244788;28;20445;-74
2022/03/26 09:21:59;;;;;;;32.67;22.42;;;;;;;25.01;26.77;103161.63;5271086;28;20705;-73
2022/03/26 09:24:30;;;;;;;31.80;20.45;;;;;;;24.73;26.83;103165.78;5253262;28;20031;-73
2022/03/26 09:27:01;;;;;;;32.40;21.58;;;;;;;25.00;25.81;103159.06;5271198;28;20036;-73
2022/03/26 09:29:33;;;;;;;33.92;22.27;;;;;;;25.25;26.51;103155.13;5271112;28;20035;-73
2022/03/26 09:32:04;;;;;;;34.80;23.05;;;;;;;25.42;25.47;103165.34;5273731;28;20031;-73
2022/03/26 09:34:35;;;;;;;30.17;21.80;;;;;;;25.72;25.25;103169.03;5273775;28;20052;-73
2022/03/26 09:37:07;;;;;;;34.85;23.02;;;;;;;25.73;25.30;103163.50;5274077;28;20107;-74
2022/03/26 09:39:38;;;;;;;31.98;22.27;;;;;;;25.95;25.03;103163.44;5274526;28;20086;-74
2022/03/26 09:42:11;;;;;;;34.85;22.83;;;;;;;26.42;24.29;103156.56;5274542;28;20017;-73
2022/03/26 09:44:42;;;;;;;31.70;22.58;;;;;;;27.15;24.13;103160.56;5275274;28;20483;-73
2022/03/26 09:47:14;;;;;;;31.92;21.90;;;;;;;27.78;23.37;103155.47;5275139;28;20129;-74
2022/03/26 09:49:45;;;;;;;33.50;22.25;;;;;;;27.40;23.10;103158.16;5273402;28;20060;-73
2022/03/26 09:52:16;;;;;;;32.35;21.58;;;;;;;27.38;22.66;103149.41;5272945;28;20570;-74
2022/03/26 09:54:48;;;;;;;27.92;21.30;;;;;;;27.84;21.98;103154.00;5273080;28;20402;-74
2022/03/26 09:57:19;;;;;;;35.15;21.50;;;;;;;27.76;22.23;103145.84;5278397;28;20517;-74
2022/03/26 09:59:50;;;;;;;37.85;22.80;;;;;;;27.57;22.72;103146.75;5273957;28;20458;-73
2022/03/26 10:02:22;;;;;;;32.15;22.83;;;;;;;27.72;22.54;103147.97;5275154;28;20229;-74
2022/03/26 10:04:53;;;;;;;29.00;23.02;;;;;;;27.41;22.84;103153.63;5273544;28;20045;-75
2022/03/26 10:07:31;;;;;;;28.13;22.70;;;;;;;28.15;22.54;103147.41;5257054;28;20038;-75
2022/03/26 10:10:03;;;;;;;30.00;22.48;;;;;;;27.65;22.09;103146.84;5274084;28;20035;-74
2022/03/26 10:12:35;;;;;;;31.25;23.65;;;;;;;27.69;22.30;103150.94;5278320;28;20021;-73
2022/03/26 10:15:08;;;;;;;34.58;21.42;;;;;;;28.10;21.89;103157.78;5275747;28;20024;-73
2022/03/26 10:17:39;;;;;;;;;;;;;;;30.46;21.32;103156.91;5275080;28;20028;-73
2022/03/26 10:20:12;;;;;;;24.23;19.05;;;;;;;28.32;21.20;103152.94;5260246;28;19927;-74
2022/03/26 10:22:48;;;;;;;26.25;17.92;;;;;;;27.85;21.47;103141.38;5274281;28;20028;-74
2022/03/26 10:25:22;;;;;;;29.10;18.30;;;;;;;28.41;21.02;103149.34;5273501;28;20028;-74
2022/03/26 10:27:56;;;;;;;29.27;19.42;;;;;;;28.21;22.02;103141.38;5274252;28;20029;-73
2022/03/26 10:33:24;;;;;;;23.75;16.35;;;;;;;28.31;20.64;103145.84;5273443;28;20033;-74
2022/03/26 10:35:59;;;;;;;24.10;16.02;;;;;;;28.24;20.01;103146.47;5274137;28;20021;-74
2022/03/26 10:38:42;;;;;;;22.30;14.50;;;;;;;27.91;20.65;103140.75;5273318;28;20111;-74
2022/03/26 10:41:13;;;;;;;26.02;16.05;;;;;;;27.42;20.83;103139.22;5273946;28;20664;-74
2022/03/26 10:43:45;;;;;;;21.23;16.98;;;;;;;26.72;21.42;103141.25;5273640;28;20111;-74
2022/03/26 10:46:23;;;;;;;25.50;16.83;;;;;;;26.54;21.93;103131.25;5273890;28;20620;-73
2022/03/26 10:49:03;;;;;;;25.75;16.67;;;;;;;26.58;22.42;103142.56;5273433;28;20029;-73
2022/03/26 10:51:38;;;;;;;23.92;16.40;;;;;;;25.93;22.20;103123.31;5274284;28;20027;-74
2022/03/26 10:54:13;;;;;;;22.73;15.70;;;;;;;25.71;22.68;103125.22;5273965;28;20426;-73
2022/03/26 10:56:45;;;;;;;24.38;17.08;;;;;;;25.81;22.88;103125.28;5272106;28;20032;-73
2022/03/26 10:59:16;;;;;;;25.15;17.60;;;;;;;25.48;22.47;103125.41;5274076;28;20047;-74
2022/03/26 11:01:47;;;;;;;29.17;16.60;;;;;;;25.55;23.06;103125.75;5274251;28;20082;-74
2022/03/26 11:04:19;;;;;;;26.20;14.48;;;;;;;24.99;22.67;103104.66;5271087;28;20049;-74
2022/03/26 11:06:51;;;;;;;19.25;13.15;;;;;;;24.13;23.64;103103.72;5272396;28;20187;-74
2022/03/26 11:09:23;;;;;;;25.70;14.57;;;;;;;24.34;23.59;103116.31;5273903;28;20133;-73
2022/03/26 11:11:56;;;;;;;20.70;12.60;;;;;;;23.98;24.04;103123.72;5273869;28;20029;-74
2022/03/26 11:14:40;;;;;;;23.63;13.02;;;;;;;23.59;24.51;103116.97;5273286;28;20024;-73
2022/03/26 11:17:36;;;;;;;22.33;13.80;;;;;;;23.38;24.96;103107.00;5273319;28;20384;-74
2022/03/26 11:20:23;;;;;;;25.08;12.00;;;;;;;23.44;25.31;103113.72;5272229;28;20395;-73
2022/03/26 11:23:25;;;;;;;16.27;12.00;;;;;;;23.35;25.85;103107.25;5273654;28;20062;-73
2022/03/26 11:26:18;;;;;;;21.25;13.50;;;;;;;23.15;26.09;103112.34;5273664;28;20032;-74
2022/03/26 11:29:14;;;;;;;17.45;11.98;;;;;;;22.56;26.96;103120.34;5271808;28;20035;-74
2022/03/26 11:31:54;;;;;;;19.92;12.38;;;;;;;22.18;27.61;103108.91;5266477;28;20124;-75
2022/03/26 11:34:25;;;;;;;18.30;11.45;;;;;;;22.50;28.08;103106.59;5261398;28;20082;-74
2022/03/26 11:37:08;;;;;;;19.13;12.02;;;;;;;22.83;27.81;103102.34;5257118;28;20487;-74
2022/03/26 11:39:45;;;;;;;20.00;11.80;;;;;;;22.11;28.82;103105.81;5269721;28;20020;-74